createdAt,value
2022-10-23T00:00:53.221Z,52.90
2022-10-23T00:01:55.521Z,51.47
2022-10-23T00:02:59.693Z,48.85
2022-10-23T00:04:12.779Z,51.38
2022-10-23T00:05:14.991Z,49.90
2022-10-23T00:06:17.960Z,51.28
2022-10-23T00:07:20.441Z,48.20
2022-10-23T00:08:22.728Z,48.40
2022-10-23T00:09:32.643Z,46.38
2022-10-23T00:10:35.568Z,47.75
2022-10-23T00:11:38.099Z,53.38
2022-10-23T00:12:40.646Z,48.08
2022-10-23T00:13:43.564Z,50.13
2022-10-23T00:14:45.814Z,46.13
2022-10-23T00:15:48.222Z,48.75
2022-10-23T00:16:51.126Z,44.35
2022-10-23T00:17:53.708Z,49.50
2022-10-23T00:18:56.155Z,44.63
2022-10-23T00:19:58.817Z,42.97
2022-10-23T00:21:01.622Z,43.97
2022-10-23T00:22:03.917Z,44.80
2022-10-23T00:23:06.200Z,45.97
2022-10-23T00:25:12.150Z,48.20
2022-10-23T00:26:15.992Z,47.42
2022-10-23T00:27:18.326Z,46.85
2022-10-23T00:28:20.677Z,48.47
2022-10-23T00:29:22.944Z,48.60
2022-10-23T00:30:25.499Z,46.83
2022-10-23T00:31:27.680Z,48.53
2022-10-23T00:32:29.981Z,48.65
2022-10-23T00:33:36.478Z,45.85
2022-10-23T00:34:38.782Z,50.08
2022-10-23T00:35:42.322Z,45.88
2022-10-23T00:36:44.527Z,50.72
2022-10-23T00:37:46.842Z,50.60
2022-10-23T00:38:50.306Z,45.17
2022-10-23T00:39:53.057Z,48.67
2022-10-23T00:40:55.274Z,49.78
2022-10-23T00:41:57.707Z,47.17
2022-10-23T00:43:00.083Z,47.45
2022-10-23T00:44:02.443Z,51.70
2022-10-23T00:45:16.797Z,47.55
2022-10-23T00:46:18.961Z,49.47
2022-10-23T00:47:21.917Z,49.20
2022-10-23T00:48:26.255Z,49.72
2022-10-23T00:49:28.717Z,50.63
2022-10-23T00:50:33.442Z,49.33
2022-10-23T00:51:46.924Z,51.08
2022-10-23T00:52:51.775Z,44.45
2022-10-23T00:54:22.979Z,49.38
2022-10-23T00:55:24.637Z,49.08
2022-10-23T00:56:27.322Z,45.20
2022-10-23T00:57:29.775Z,50.42
2022-10-23T00:58:32.843Z,45.10
2022-10-23T00:59:35.064Z,44.45
2022-10-23T01:00:46.373Z,44.78
2022-10-23T01:01:49.166Z,42.85
2022-10-23T01:02:52.713Z,43.85
2022-10-23T01:03:56.067Z,47.05
2022-10-23T01:04:58.394Z,40.22
2022-10-23T01:06:09.700Z,44.78
2022-10-23T01:07:15.277Z,42.88
2022-10-23T01:08:29.010Z,39.47
2022-10-23T01:09:35.950Z,39.92
2022-10-23T01:10:54.713Z,41.20
2022-10-23T01:12:18.663Z,38.40
2022-10-23T01:13:26.605Z,35.38
2022-10-23T01:14:35.936Z,38.88
2022-10-23T01:15:41.222Z,37.22
2022-10-23T01:17:02.408Z,38.42
2022-10-23T01:18:29.936Z,37.50
2022-10-23T01:19:50.547Z,40.42
2022-10-23T01:20:55.928Z,32.63
2022-10-23T01:22:13.044Z,36.25
2022-10-23T01:23:51.432Z,34.70
2022-10-23T01:24:56.553Z,34.58
2022-10-23T01:26:39.810Z,32.83
2022-10-23T01:27:56.330Z,36.60
2022-10-23T01:29:16.900Z,35.28
2022-10-23T01:30:19.250Z,33.88
2022-10-23T01:31:33.058Z,42.25
2022-10-23T01:32:48.431Z,37.00
2022-10-23T01:34:03.856Z,39.90
2022-10-23T01:35:19.024Z,39.90
2022-10-23T01:36:29.505Z,42.70
2022-10-23T01:37:44.874Z,36.33
2022-10-23T01:38:58.570Z,38.00
2022-10-23T01:40:05.393Z,38.10
2022-10-23T01:41:14.806Z,39.85
2022-10-23T01:42:21.206Z,38.80
2022-10-23T01:43:35.446Z,36.58
2022-10-23T01:44:50.891Z,40.08
2022-10-23T01:45:59.431Z,35.35
2022-10-23T01:47:06.356Z,35.78
2022-10-23T01:48:18.267Z,37.92
2022-10-23T01:49:23.195Z,37.35
2022-10-23T01:50:30.478Z,39.33
2022-10-23T01:51:39.192Z,39.25
2022-10-23T01:52:43.593Z,38.97
2022-10-23T01:53:48.543Z,35.55
2022-10-23T01:54:53.822Z,37.08
2022-10-23T01:55:56.928Z,36.10
2022-10-23T01:57:02.050Z,36.08
2022-10-23T01:58:08.669Z,35.05
2022-10-23T01:59:21.595Z,37.67
2022-10-23T02:00:24.012Z,34.85
2022-10-23T02:01:30.240Z,36.80
2022-10-23T02:02:34.442Z,39.90
2022-10-23T02:03:40.891Z,36.05
2022-10-23T02:05:04.585Z,37.00
2022-10-23T02:06:07.105Z,34.33
2022-10-23T02:07:09.360Z,35.10
2022-10-23T02:08:12.024Z,33.03
2022-10-23T02:09:15.193Z,35.20
2022-10-23T02:10:17.944Z,34.42
2022-10-23T02:11:21.954Z,36.40
2022-10-23T02:14:16.891Z,38.72
2022-10-23T02:15:31.135Z,36.78
2022-10-23T02:16:52.799Z,36.58
2022-10-23T02:18:24.559Z,35.10
2022-10-23T02:19:43.956Z,39.90
2022-10-23T02:20:51.759Z,37.28
2022-10-23T02:22:07.580Z,40.05
2022-10-23T02:23:33.345Z,38.03
2022-10-23T02:24:43.857Z,39.42
2022-10-23T02:26:10.983Z,40.10
2022-10-23T02:27:19.798Z,42.35
2022-10-23T02:28:34.275Z,41.47
2022-10-23T02:29:51.896Z,45.50
2022-10-23T02:30:59.366Z,46.65
2022-10-23T02:32:02.288Z,44.17
2022-10-23T02:33:05.969Z,53.95
2022-10-23T02:34:08.293Z,58.05
2022-10-23T02:35:11.462Z,49.70
2022-10-23T02:36:14.856Z,68.82
2022-10-23T02:37:17.585Z,54.10
2022-10-23T02:38:36.752Z,72.22
2022-10-23T02:39:39.773Z,67.80
2022-10-23T02:40:47.766Z,55.08
2022-10-23T02:41:56.136Z,70.55
2022-10-23T02:43:08.333Z,77.07
2022-10-23T02:44:10.487Z,68.93
2022-10-23T02:45:23.202Z,90.78
2022-10-23T02:46:30.344Z,64.22
2022-10-23T02:47:43.139Z,63.33
2022-10-23T02:48:57.884Z,57.58
2022-10-23T02:50:42.660Z,52.28
2022-10-23T02:52:21.136Z,56.22
2022-10-23T02:53:49.411Z,60.83
2022-10-23T02:55:24.070Z,52.20
2022-10-23T02:56:41.319Z,53.85
2022-10-23T02:57:49.879Z,46.85
2022-10-23T02:58:58.345Z,53.38
2022-10-23T03:00:07.869Z,46.17
2022-10-23T03:01:15.892Z,43.45
2022-10-23T03:02:26.144Z,46.42
2022-10-23T03:03:35.469Z,44.58
2022-10-23T03:04:40.238Z,45.63
2022-10-23T03:05:45.214Z,40.85
2022-10-23T03:06:51.017Z,44.50
2022-10-23T03:07:54.125Z,43.30
2022-10-23T03:09:05.052Z,43.00
2022-10-23T03:10:09.111Z,43.92
2022-10-23T03:11:11.924Z,44.83
2022-10-23T03:12:14.379Z,41.47
2022-10-23T03:13:16.713Z,47.10
2022-10-23T03:14:19.799Z,43.22
2022-10-23T03:15:22.544Z,46.10
2022-10-23T03:16:26.667Z,44.80
2022-10-23T03:17:30.291Z,44.20
2022-10-23T03:18:35.374Z,44.50
2022-10-23T03:19:38.365Z,42.33
2022-10-23T03:20:40.631Z,42.17
2022-10-23T03:21:42.979Z,43.60
2022-10-23T03:22:45.967Z,41.40
2022-10-23T03:23:48.793Z,44.05
2022-10-23T03:24:54.606Z,47.10
2022-10-23T03:25:57.073Z,44.63
2022-10-23T03:27:13.848Z,48.95
2022-10-23T03:28:16.139Z,42.85
2022-10-23T03:29:18.925Z,46.95
2022-10-23T03:30:22.102Z,44.10
2022-10-23T03:31:29.105Z,42.25
2022-10-23T03:32:34.079Z,42.38
2022-10-23T03:33:36.350Z,42.65
2022-10-23T03:34:44.447Z,42.30
2022-10-23T03:36:56.491Z,45.78
2022-10-23T03:37:58.676Z,44.78
2022-10-23T03:39:02.138Z,46.70
2022-10-23T03:40:04.907Z,41.85
2022-10-23T03:41:10.344Z,50.10
2022-10-23T03:42:12.724Z,45.78
2022-10-23T03:43:15.303Z,49.90
2022-10-23T03:44:18.188Z,47.22
2022-10-23T03:45:21.005Z,48.33
2022-10-23T03:46:24.477Z,43.97
2022-10-23T03:47:32.406Z,46.92
2022-10-23T03:48:39.370Z,45.83
2022-10-23T03:49:41.923Z,51.70
2022-10-23T03:50:44.140Z,46.85
2022-10-23T03:51:52.157Z,46.65
2022-10-23T03:52:56.532Z,48.45
2022-10-23T03:53:58.795Z,48.75
2022-10-23T03:55:01.162Z,45.60
2022-10-23T03:56:03.518Z,48.05
2022-10-23T03:57:05.707Z,46.33
2022-10-23T03:58:08.034Z,51.03
2022-10-23T03:59:10.347Z,52.72
2022-10-23T04:00:13.193Z,49.25
2022-10-23T04:01:22.923Z,50.92
2022-10-23T04:02:25.347Z,49.28
2022-10-23T04:03:27.914Z,49.55
2022-10-23T04:04:30.572Z,49.17
2022-10-23T04:05:33.394Z,52.15
2022-10-23T04:06:36.127Z,50.42
2022-10-23T04:07:39.625Z,48.50
2022-10-23T04:08:44.152Z,50.75
2022-10-23T04:09:51.498Z,47.45
2022-10-23T04:10:55.183Z,47.80
2022-10-23T04:12:12.016Z,46.88
2022-10-23T04:13:14.349Z,48.03
2022-10-23T04:14:17.716Z,49.33
2022-10-23T04:15:20.233Z,49.95
2022-10-23T04:16:22.714Z,53.67
2022-10-23T04:17:25.119Z,45.88
2022-10-23T04:18:30.555Z,48.22
2022-10-23T04:19:32.860Z,51.67
2022-10-23T04:20:35.273Z,54.75
2022-10-23T04:21:38.042Z,49.70
2022-10-23T04:22:40.497Z,50.70
2022-10-23T04:23:43.349Z,50.28
2022-10-23T04:24:51.612Z,51.88
2022-10-23T04:25:57.625Z,49.58
2022-10-23T04:27:01.544Z,53.88
2022-10-23T04:28:05.263Z,50.33
2022-10-23T04:29:12.226Z,43.75
2022-10-23T04:30:14.645Z,47.00
2022-10-23T04:31:17.025Z,45.40
2022-10-23T04:32:19.344Z,55.25
2022-10-23T04:33:21.650Z,59.03
2022-10-23T04:34:26.333Z,63.58
2022-10-23T04:35:29.642Z,64.68
2022-10-23T04:36:31.902Z,62.97
2022-10-23T04:37:40.954Z,62.33
2022-10-23T04:38:43.750Z,63.75
2022-10-23T04:39:46.083Z,60.63
2022-10-23T04:40:49.494Z,63.97
2022-10-23T04:41:55.974Z,64.13
2022-10-23T04:43:00.500Z,60.20
2022-10-23T04:44:07.944Z,54.35
2022-10-23T04:45:13.538Z,59.78
2022-10-23T04:46:18.115Z,52.40
2022-10-23T04:47:22.853Z,51.47
2022-10-23T04:48:35.174Z,53.60
2022-10-23T04:49:55.603Z,52.05
2022-10-23T04:51:17.889Z,47.95
2022-10-23T04:52:34.343Z,46.97
2022-10-23T04:53:59.565Z,45.58
2022-10-23T04:55:19.477Z,44.78
2022-10-23T04:56:39.027Z,48.00
2022-10-23T04:57:44.412Z,45.97
2022-10-23T04:58:47.531Z,51.97
2022-10-23T04:59:50.022Z,49.42
2022-10-23T05:00:53.900Z,48.83
2022-10-23T05:01:59.941Z,43.63
2022-10-23T05:03:02.249Z,46.95
2022-10-23T05:04:11.000Z,41.70
2022-10-23T05:05:33.924Z,45.78
2022-10-23T05:07:03.579Z,43.85
2022-10-23T05:08:23.684Z,44.72
2022-10-23T05:10:01.153Z,46.45
2022-10-23T05:11:12.575Z,46.55
2022-10-23T05:12:20.192Z,48.08
2022-10-23T05:13:23.977Z,48.60
2022-10-23T05:14:26.225Z,47.58
2022-10-23T05:15:28.647Z,51.33
2022-10-23T05:16:43.286Z,51.92
2022-10-23T05:17:49.433Z,46.58
2022-10-23T05:18:51.912Z,47.78
2022-10-23T05:19:58.109Z,49.97
2022-10-23T05:21:17.722Z,46.72
2022-10-23T05:22:27.105Z,50.25
2022-10-23T05:23:32.273Z,52.63
2022-10-23T05:24:37.236Z,50.92
2022-10-23T05:25:40.523Z,47.97
2022-10-23T05:26:53.137Z,53.47
2022-10-23T05:27:56.097Z,52.85
2022-10-23T05:28:58.443Z,51.30
2022-10-23T05:30:00.706Z,50.58
2022-10-23T05:31:06.571Z,59.13
2022-10-23T05:32:13.701Z,52.75
2022-10-23T05:33:16.564Z,54.75
2022-10-23T05:34:23.493Z,58.03
2022-10-23T05:35:25.877Z,61.75
2022-10-23T05:36:28.756Z,61.05
2022-10-23T05:37:32.935Z,67.30
2022-10-23T05:39:49.431Z,67.53
2022-10-23T05:40:53.401Z,71.35
2022-10-23T05:41:57.569Z,67.97
2022-10-23T05:43:00.907Z,65.03
2022-10-23T05:44:32.109Z,65.07
2022-10-23T05:45:54.638Z,64.30
2022-10-23T05:46:59.814Z,57.35
2022-10-23T05:48:34.566Z,53.05
2022-10-23T05:49:55.918Z,52.75
2022-10-23T05:51:23.647Z,50.42
2022-10-23T05:52:39.955Z,53.55
2022-10-23T05:54:11.407Z,52.67
2022-10-23T05:55:23.625Z,51.15
2022-10-23T05:56:43.093Z,51.95
2022-10-23T05:57:54.976Z,51.72
2022-10-23T05:59:14.704Z,46.30
2022-10-23T06:00:36.590Z,46.55
2022-10-23T06:01:59.059Z,48.58
2022-10-23T06:03:16.383Z,44.55
2022-10-23T06:04:19.612Z,47.58
2022-10-23T06:05:52.009Z,46.83
2022-10-23T06:06:57.287Z,59.80
2022-10-23T06:08:00.248Z,55.83
2022-10-23T06:09:04.039Z,51.20
2022-10-23T06:10:10.180Z,42.22
2022-10-23T06:11:16.599Z,41.90
2022-10-23T06:12:26.880Z,34.95
2022-10-23T06:13:29.237Z,36.17
2022-10-23T06:14:31.396Z,38.38
2022-10-23T06:15:33.826Z,35.03
2022-10-23T06:16:41.048Z,46.20
2022-10-23T06:17:43.993Z,37.45
2022-10-23T06:18:47.711Z,42.33
2022-10-23T06:19:51.476Z,39.42
2022-10-23T06:20:53.977Z,51.80
2022-10-23T06:22:01.546Z,73.15
2022-10-23T06:23:21.198Z,42.25
2022-10-23T06:24:52.611Z,41.53
2022-10-23T06:25:59.477Z,43.45
2022-10-23T06:27:11.421Z,60.08
2022-10-23T06:28:19.820Z,50.85
2022-10-23T06:29:23.364Z,46.22
2022-10-23T06:30:26.481Z,42.10
2022-10-23T06:31:28.875Z,43.38
2022-10-23T06:33:45.543Z,46.58
2022-10-23T06:34:47.989Z,39.42
2022-10-23T06:35:50.215Z,38.95
2022-10-23T06:36:52.722Z,37.80
2022-10-23T06:38:10.635Z,36.35
2022-10-23T06:39:18.464Z,40.58
2022-10-23T06:40:55.797Z,39.17
2022-10-23T06:42:10.470Z,37.47
2022-10-23T06:43:27.906Z,38.67
2022-10-23T06:44:57.004Z,36.97
2022-10-23T06:46:19.291Z,35.20
2022-10-23T06:47:41.704Z,38.40
2022-10-23T06:49:20.364Z,36.08
2022-10-23T06:50:25.403Z,35.97
2022-10-23T06:51:29.916Z,37.97
2022-10-23T06:52:46.670Z,41.00
2022-10-23T06:53:52.337Z,38.78
2022-10-23T06:55:14.693Z,36.65
2022-10-23T06:56:17.133Z,40.95
2022-10-23T06:57:22.572Z,35.90
2022-10-23T06:58:26.080Z,35.50
2022-10-23T06:59:38.982Z,40.15
2022-10-23T07:00:42.573Z,44.55
2022-10-23T07:01:45.081Z,44.10
2022-10-23T07:02:48.369Z,41.90
2022-10-23T07:03:50.783Z,38.33
2022-10-23T07:04:57.933Z,34.13
2022-10-23T07:06:06.344Z,33.03
2022-10-23T07:07:08.800Z,32.83
2022-10-23T07:08:19.749Z,33.83
2022-10-23T07:09:27.178Z,42.58
2022-10-23T07:10:29.327Z,34.33
2022-10-23T07:11:33.417Z,32.28
2022-10-23T07:12:36.538Z,31.65
2022-10-23T07:13:59.048Z,37.05
2022-10-23T07:15:01.276Z,33.95
2022-10-23T07:16:11.138Z,36.50
2022-10-23T07:17:13.611Z,34.17
2022-10-23T07:18:17.079Z,32.33
2022-10-23T07:19:57.530Z,34.70
2022-10-23T07:21:00.134Z,34.70
2022-10-23T07:22:03.940Z,32.70
2022-10-23T07:23:41.447Z,29.92
2022-10-23T07:24:46.194Z,28.92
2022-10-23T07:26:11.694Z,29.98
2022-10-23T07:27:14.008Z,31.98
2022-10-23T07:28:16.625Z,32.42
2022-10-23T07:29:19.114Z,30.85
2022-10-23T07:30:22.840Z,35.33
2022-10-23T07:31:29.576Z,32.50
2022-10-23T07:32:50.635Z,32.78
2022-10-23T07:34:11.532Z,32.92
2022-10-23T07:36:39.885Z,34.80
2022-10-23T07:37:42.416Z,31.13
2022-10-23T07:38:45.623Z,29.60
2022-10-23T07:39:48.131Z,32.97
2022-10-23T07:40:50.396Z,31.20
2022-10-23T07:41:53.776Z,30.00
2022-10-23T07:42:56.558Z,28.42
2022-10-23T07:43:59.399Z,28.20
2022-10-23T07:45:01.866Z,30.83
2022-10-23T07:46:05.207Z,31.23
2022-10-23T07:47:11.848Z,30.20
2022-10-23T07:48:17.731Z,32.55
2022-10-23T07:50:38.296Z,28.55
2022-10-23T07:51:40.719Z,29.30
2022-10-23T07:52:43.756Z,31.92
2022-10-23T07:53:48.580Z,31.92
2022-10-23T07:55:18.706Z,30.77
2022-10-23T07:56:30.098Z,34.33
2022-10-23T07:57:59.134Z,32.17
2022-10-23T07:59:27.868Z,30.13
2022-10-23T08:00:30.769Z,31.33
2022-10-23T08:01:44.094Z,36.35
2022-10-23T08:02:46.729Z,35.58
2022-10-23T08:03:49.113Z,33.22
2022-10-23T08:04:51.575Z,32.65
2022-10-23T08:06:10.256Z,37.17
2022-10-23T08:07:12.702Z,32.60
2022-10-23T08:08:18.409Z,31.40
2022-10-23T08:09:23.268Z,29.30
2022-10-23T08:10:25.645Z,31.38
2022-10-23T08:11:31.122Z,27.52
2022-10-23T08:12:33.585Z,30.38
2022-10-23T08:13:36.438Z,28.13
2022-10-23T08:14:41.263Z,28.70
2022-10-23T08:15:45.279Z,27.33
2022-10-23T08:17:10.035Z,26.05
2022-10-23T08:18:49.649Z,29.80
2022-10-23T08:19:53.380Z,27.02
2022-10-23T08:21:01.801Z,26.80
2022-10-23T08:22:04.100Z,35.70
2022-10-23T08:23:07.123Z,27.75
2022-10-23T08:24:13.994Z,25.13
2022-10-23T08:25:21.910Z,27.30
2022-10-23T08:26:31.320Z,27.58
2022-10-23T08:27:34.064Z,27.67
2022-10-23T08:28:36.729Z,30.70
2022-10-23T08:29:39.813Z,27.20
2022-10-23T08:30:42.189Z,26.38
2022-10-23T08:31:44.731Z,25.67
2022-10-23T08:32:57.638Z,27.58
2022-10-23T08:34:01.486Z,30.80
2022-10-23T08:35:03.846Z,27.70
2022-10-23T08:36:17.946Z,30.92
2022-10-23T08:37:20.159Z,34.30
2022-10-23T08:38:22.373Z,32.78
2022-10-23T08:39:24.589Z,35.03
2022-10-23T08:40:46.428Z,33.05
2022-10-23T08:42:25.937Z,34.38
2022-10-23T08:43:38.694Z,36.15
2022-10-23T08:45:06.011Z,38.42
2022-10-23T08:46:18.161Z,38.35
2022-10-23T08:47:46.752Z,39.65
2022-10-23T08:48:56.624Z,39.75
2022-10-23T08:51:44.237Z,38.15
2022-10-23T08:53:12.810Z,39.83
2022-10-23T08:54:20.712Z,36.72
2022-10-23T08:55:42.938Z,35.55
2022-10-23T08:56:52.456Z,36.20
2022-10-23T08:58:06.254Z,41.08
2022-10-23T08:59:20.130Z,38.40
2022-10-23T09:00:22.553Z,35.28
2022-10-23T09:01:47.148Z,35.08
2022-10-23T09:02:52.502Z,35.95
2022-10-23T09:03:54.746Z,35.42
2022-10-23T09:04:58.876Z,37.42
2022-10-23T09:06:09.064Z,34.97
2022-10-23T09:07:43.144Z,35.10
2022-10-23T09:08:51.037Z,36.45
2022-10-23T09:10:14.368Z,37.53
2022-10-23T09:12:07.166Z,33.58
2022-10-23T09:13:34.965Z,36.20
2022-10-23T09:14:55.945Z,31.98
2022-10-23T09:16:26.250Z,34.20
2022-10-23T09:17:29.696Z,34.08
2022-10-23T09:18:32.423Z,38.28
2022-10-23T09:19:34.973Z,28.60
2022-10-23T09:20:37.616Z,30.35
2022-10-23T09:21:39.965Z,28.95
2022-10-23T09:22:43.691Z,27.60
2022-10-23T09:23:45.978Z,31.98
2022-10-23T09:24:52.983Z,29.67
2022-10-23T09:25:57.246Z,33.15
2022-10-23T09:27:00.840Z,32.78
2022-10-23T09:28:05.544Z,30.92
2022-10-23T09:29:27.723Z,31.60
2022-10-23T09:30:32.864Z,30.63
2022-10-23T09:31:35.109Z,33.50
2022-10-23T09:32:38.450Z,33.15
2022-10-23T09:33:41.188Z,32.17
2022-10-23T09:34:55.226Z,33.35
2022-10-23T09:36:03.031Z,34.33
2022-10-23T09:37:22.532Z,37.25
2022-10-23T09:38:33.343Z,32.50
2022-10-23T09:39:37.008Z,32.92
2022-10-23T09:40:42.041Z,35.70
2022-10-23T09:41:44.529Z,36.95
2022-10-23T09:43:11.854Z,33.25
2022-10-23T09:44:23.090Z,35.30
2022-10-23T09:45:29.451Z,39.05
2022-10-23T09:46:46.002Z,34.17
2022-10-23T09:47:48.305Z,46.95
2022-10-23T09:48:59.030Z,59.25
2022-10-23T09:50:03.463Z,110.75
2022-10-23T09:51:26.109Z,133.85
2022-10-23T09:52:39.212Z,92.53
2022-10-23T09:54:01.768Z,76.80
2022-10-23T09:55:20.812Z,46.83
2022-10-23T09:56:35.409Z,41.92
2022-10-23T09:57:43.144Z,38.75
2022-10-23T09:58:56.684Z,41.50
2022-10-23T10:00:20.647Z,38.15
2022-10-23T10:01:36.478Z,39.20
2022-10-23T10:03:05.262Z,40.63
2022-10-23T10:04:31.129Z,45.92
2022-10-23T10:05:35.023Z,43.97
2022-10-23T10:06:43.310Z,46.67
2022-10-23T10:07:55.947Z,43.17
2022-10-23T10:09:15.675Z,37.60
2022-10-23T10:10:17.890Z,41.88
2022-10-23T10:11:37.568Z,54.88
2022-10-23T10:12:51.114Z,55.08
2022-10-23T10:14:01.956Z,57.88
2022-10-23T10:15:25.575Z,55.50
2022-10-23T10:16:54.227Z,49.03
2022-10-23T10:18:03.906Z,57.17
2022-10-23T10:19:21.609Z,52.03
2022-10-23T10:20:49.850Z,67.10
2022-10-23T10:22:16.758Z,66.18
2022-10-23T10:23:50.546Z,63.15
2022-10-23T10:25:20.285Z,35.60
2022-10-23T10:26:35.251Z,40.80
2022-10-23T10:27:54.640Z,37.22
2022-10-23T10:29:20.032Z,40.58
2022-10-23T10:30:23.922Z,38.92
2022-10-23T10:31:53.081Z,50.58
2022-10-23T10:33:01.332Z,49.70
2022-10-23T10:34:35.870Z,50.35
2022-10-23T10:35:50.393Z,40.72
2022-10-23T10:36:56.825Z,41.22
2022-10-23T10:38:33.926Z,46.42
2022-10-23T10:39:57.977Z,50.30
2022-10-23T10:41:18.803Z,43.35
2022-10-23T10:42:32.503Z,39.22
2022-10-23T10:43:40.870Z,38.90
2022-10-23T10:45:18.126Z,42.00
2022-10-23T10:46:27.869Z,43.03
2022-10-23T10:48:03.561Z,48.88
2022-10-23T10:49:22.079Z,69.35
2022-10-23T10:50:51.330Z,67.97
2022-10-23T10:52:22.558Z,42.83
2022-10-23T10:54:04.009Z,38.92
2022-10-23T10:55:19.283Z,34.97
2022-10-23T10:56:27.032Z,33.03
2022-10-23T10:57:34.661Z,36.80
2022-10-23T10:58:48.431Z,32.85
2022-10-23T10:59:54.492Z,32.65
2022-10-23T11:00:59.569Z,34.08
2022-10-23T11:02:28.765Z,30.27
2022-10-23T11:05:06.023Z,29.73
2022-10-23T11:06:15.542Z,32.53
2022-10-23T11:07:22.828Z,29.38
2022-10-23T11:08:44.464Z,32.75
2022-10-23T11:10:00.523Z,29.67
2022-10-23T11:11:22.620Z,31.75
2022-10-23T11:12:28.036Z,28.92
2022-10-23T11:13:37.668Z,31.88
2022-10-23T11:14:42.879Z,28.77
2022-10-23T11:15:45.853Z,30.90
2022-10-23T11:17:10.441Z,35.13
2022-10-23T11:18:19.086Z,28.67
2022-10-23T11:19:34.909Z,26.90
2022-10-23T11:20:51.043Z,31.25
2022-10-23T11:21:56.650Z,25.88
2022-10-23T11:23:18.866Z,27.80
2022-10-23T11:24:26.882Z,24.80
2022-10-23T11:25:47.680Z,24.15
2022-10-23T11:27:08.819Z,24.05
2022-10-23T11:28:38.700Z,25.90
2022-10-23T11:30:15.276Z,23.42
2022-10-23T11:32:06.421Z,26.27
2022-10-23T11:33:34.373Z,25.55
2022-10-23T11:34:52.103Z,26.98
2022-10-23T11:36:03.071Z,26.23
2022-10-23T11:37:05.557Z,24.92
2022-10-23T11:38:13.778Z,25.15
2022-10-23T11:39:18.714Z,27.00
2022-10-23T11:40:25.777Z,22.95
2022-10-23T11:41:34.164Z,24.02
2022-10-23T11:42:39.940Z,24.08
2022-10-23T11:44:01.723Z,23.92
2022-10-23T11:45:05.006Z,23.92
2022-10-23T11:46:23.558Z,24.08
2022-10-23T11:47:37.979Z,28.98
2022-10-23T11:48:44.326Z,28.55
2022-10-23T11:49:46.540Z,31.67
2022-10-23T11:50:55.655Z,24.55
2022-10-23T11:52:04.301Z,24.52
2022-10-23T11:53:23.407Z,26.10
2022-10-23T11:54:27.460Z,26.60
2022-10-23T11:55:32.356Z,27.38
2022-10-23T11:56:35.146Z,25.13
2022-10-23T11:57:37.728Z,23.25
2022-10-23T11:58:53.477Z,22.70
2022-10-23T11:59:57.724Z,22.95
2022-10-23T12:01:05.965Z,25.23
2022-10-23T12:02:32.578Z,23.83
2022-10-23T12:03:59.409Z,24.42
2022-10-23T12:05:09.086Z,24.58
2022-10-23T12:06:23.038Z,24.75
2022-10-23T12:07:33.206Z,29.83
2022-10-23T12:08:40.095Z,25.02
2022-10-23T12:09:52.344Z,25.33
2022-10-23T12:10:55.614Z,23.60
2022-10-23T12:12:02.907Z,25.13
2022-10-23T12:13:06.776Z,23.58
2022-10-23T12:15:33.164Z,22.38
2022-10-23T12:16:36.907Z,22.73
2022-10-23T12:17:40.602Z,20.58
2022-10-23T12:18:48.065Z,21.85
2022-10-23T12:19:53.925Z,26.25
2022-10-23T12:20:59.160Z,25.35
2022-10-23T12:22:02.458Z,26.20
2022-10-23T12:23:40.443Z,26.13
2022-10-23T12:24:59.829Z,25.02
2022-10-23T12:26:13.032Z,23.20
2022-10-23T12:27:57.341Z,27.23
2022-10-23T12:29:26.157Z,23.88
2022-10-23T12:30:47.819Z,23.15
2022-10-23T12:32:09.091Z,23.80
2022-10-23T12:33:37.746Z,26.00
2022-10-23T12:34:46.529Z,24.00
2022-10-23T12:36:39.053Z,26.88
2022-10-23T12:38:15.447Z,26.60
2022-10-23T12:39:28.704Z,27.13
2022-10-23T12:40:31.255Z,27.73
2022-10-23T12:41:35.332Z,27.75
2022-10-23T12:42:38.328Z,29.30
2022-10-23T12:43:44.196Z,27.45
2022-10-23T12:44:46.715Z,29.20
2022-10-23T12:45:50.552Z,29.00
2022-10-23T12:47:04.370Z,26.58
2022-10-23T12:48:07.382Z,29.27
2022-10-23T12:49:18.903Z,26.85
2022-10-23T12:50:24.509Z,28.65
2022-10-23T12:51:35.405Z,30.33
2022-10-23T12:52:39.902Z,30.88
2022-10-23T12:53:42.741Z,31.25
2022-10-23T12:54:45.858Z,28.38
2022-10-23T12:57:28.485Z,28.48
2022-10-23T12:58:33.613Z,29.90
2022-10-23T12:59:41.961Z,28.05
2022-10-23T13:00:53.764Z,28.60
2022-10-23T13:01:57.522Z,27.05
2022-10-23T13:03:04.412Z,28.85
2022-10-23T13:04:27.946Z,30.58
2022-10-23T13:05:32.417Z,28.33
2022-10-23T13:06:35.248Z,29.40
2022-10-23T13:07:44.882Z,31.70
2022-10-23T13:08:50.257Z,31.17
2022-10-23T13:10:19.191Z,37.28
2022-10-23T13:11:37.424Z,35.42
2022-10-23T13:12:50.872Z,33.50
2022-10-23T13:13:53.779Z,38.90
2022-10-23T13:15:00.836Z,37.28
2022-10-23T13:16:15.498Z,35.30
2022-10-23T13:17:19.075Z,36.17
2022-10-23T13:18:21.783Z,31.50
2022-10-23T13:19:26.201Z,37.35
2022-10-23T13:20:38.362Z,31.45
2022-10-23T13:21:46.716Z,34.92
2022-10-23T13:23:01.232Z,35.70
2022-10-23T13:24:04.185Z,31.90
2022-10-23T13:25:27.791Z,28.70
2022-10-23T13:26:47.753Z,26.42
2022-10-23T13:27:51.432Z,29.00
2022-10-23T13:28:54.672Z,26.80
2022-10-23T13:29:58.481Z,28.40
2022-10-23T13:31:26.335Z,26.98
2022-10-23T13:32:31.084Z,26.60
2022-10-23T13:33:37.365Z,30.50
2022-10-23T13:34:40.060Z,27.42
2022-10-23T13:35:42.809Z,28.45
2022-10-23T13:36:59.402Z,26.98
2022-10-23T13:38:11.291Z,30.42
2022-10-23T13:39:17.335Z,26.95
2022-10-23T13:40:26.584Z,31.38
2022-10-23T13:41:41.423Z,26.75
2022-10-23T13:42:44.462Z,29.73
2022-10-23T13:43:48.259Z,30.10
2022-10-23T13:44:50.950Z,28.02
2022-10-23T13:45:53.969Z,31.27
2022-10-23T13:46:57.101Z,31.17
2022-10-23T13:48:00.103Z,31.25
2022-10-23T13:49:03.136Z,29.98
2022-10-23T13:50:07.880Z,29.45
2022-10-23T13:51:24.207Z,27.30
2022-10-23T13:52:28.379Z,24.83
2022-10-23T13:53:31.799Z,26.77
2022-10-23T13:54:34.872Z,25.95
2022-10-23T13:55:40.865Z,25.80
2022-10-23T13:56:43.997Z,25.52
2022-10-23T13:57:47.595Z,25.60
2022-10-23T13:58:51.414Z,28.10
2022-10-23T13:59:56.387Z,28.52
2022-10-23T14:00:59.501Z,28.65
2022-10-23T14:02:05.517Z,28.05
2022-10-23T14:03:09.298Z,28.80
2022-10-23T14:05:17.838Z,28.85
2022-10-23T14:06:20.691Z,27.63
2022-10-23T14:07:24.546Z,27.10
2022-10-23T14:08:27.811Z,30.52
2022-10-23T14:09:31.737Z,31.58
2022-10-23T14:10:35.228Z,33.30
2022-10-23T14:11:41.301Z,28.65
2022-10-23T14:12:45.255Z,28.38
2022-10-23T14:13:49.113Z,30.63
2022-10-23T14:14:53.431Z,30.08
2022-10-23T14:15:56.278Z,28.60
2022-10-23T14:16:59.682Z,28.45
2022-10-23T14:18:08.071Z,29.58
2022-10-23T14:19:12.106Z,30.35
2022-10-23T14:20:17.258Z,27.02
2022-10-23T14:21:23.107Z,30.33
2022-10-23T14:22:27.615Z,28.30
2022-10-23T14:23:31.317Z,28.60
2022-10-23T14:25:38.249Z,30.45
2022-10-23T14:26:42.847Z,30.98
2022-10-23T14:27:46.009Z,29.25
2022-10-23T14:28:53.719Z,27.80
2022-10-23T14:29:58.011Z,28.77
2022-10-23T14:31:08.901Z,30.50
2022-10-23T14:32:12.220Z,30.67
2022-10-23T14:33:17.245Z,30.42
2022-10-23T14:34:20.470Z,29.02
2022-10-23T14:35:23.445Z,29.40
2022-10-23T14:36:34.266Z,32.55
2022-10-23T14:37:48.754Z,30.92
2022-10-23T14:38:56.281Z,26.20
2022-10-23T14:39:59.901Z,29.92
2022-10-23T14:41:03.120Z,31.65
2022-10-23T14:42:06.123Z,32.30
2022-10-23T14:43:10.252Z,34.85
2022-10-23T14:44:15.233Z,36.90
2022-10-23T14:45:19.129Z,32.85
2022-10-23T14:46:26.132Z,31.40
2022-10-23T14:47:30.064Z,30.48
2022-10-23T14:48:33.229Z,30.63
2022-10-23T14:49:36.474Z,36.30
2022-10-23T14:50:44.959Z,35.22
2022-10-23T14:51:48.616Z,39.83
2022-10-23T14:52:52.159Z,37.38
2022-10-23T14:53:58.903Z,36.83
2022-10-23T14:55:02.551Z,36.92
2022-10-23T14:56:06.528Z,36.80
2022-10-23T14:57:09.850Z,35.92
2022-10-23T14:58:13.598Z,36.25
2022-10-23T14:59:16.925Z,33.25
2022-10-23T15:00:19.783Z,33.65
2022-10-23T15:01:23.697Z,28.65
2022-10-23T15:02:28.335Z,32.70
2022-10-23T15:03:31.432Z,32.20
2022-10-23T15:04:35.488Z,31.75
2022-10-23T15:05:42.080Z,31.85
2022-10-23T15:06:47.790Z,32.42
2022-10-23T15:07:52.750Z,33.97
2022-10-23T15:08:56.788Z,33.67
2022-10-23T15:09:59.565Z,36.38
2022-10-23T15:11:07.678Z,35.00
2022-10-23T15:12:13.143Z,38.65
2022-10-23T15:13:15.866Z,40.50
2022-10-23T15:14:18.597Z,38.72